createdAt,value
2024-02-06T01:14:30.589Z,84
2024-02-06T01:24:30.773Z,84
2024-02-06T01:34:31.024Z,84
2024-02-06T01:44:31.175Z,84
2024-02-06T01:54:31.389Z,84
2024-02-06T02:04:31.633Z,83
2024-02-06T02:24:32.022Z,83
2024-02-06T02:44:32.408Z,83
2024-02-06T03:04:32.788Z,82
2024-02-06T03:24:33.218Z,82
2024-02-06T03:34:33.404Z,82
2024-02-06T03:44:33.572Z,82
2024-02-06T03:54:33.811Z,82
2024-02-06T04:04:34.093Z,82
2024-02-06T04:14:34.171Z,82
2024-02-06T04:24:34.391Z,82
2024-02-06T04:34:34.734Z,82
2024-02-06T04:44:34.800Z,82
2024-02-06T04:54:34.977Z,82
2024-02-06T05:14:35.366Z,82
2024-02-06T05:24:35.561Z,82
2024-02-06T05:34:35.819Z,82
2024-02-06T05:44:35.974Z,82
2024-02-06T05:54:36.214Z,82
2024-02-06T06:04:36.525Z,83
2024-02-06T06:14:36.565Z,83
2024-02-06T06:24:36.833Z,83
2024-02-06T06:34:36.993Z,83
2024-02-06T06:44:37.236Z,83
2024-02-06T06:54:37.350Z,83
2024-02-06T07:04:37.610Z,83
2024-02-06T07:14:37.753Z,83
2024-02-06T07:24:37.958Z,83
2024-02-06T07:34:38.231Z,83
2024-02-06T07:44:38.350Z,83
2024-02-06T07:54:38.554Z,83
2024-02-06T08:04:38.758Z,83
2024-02-06T08:14:38.969Z,83
2024-02-06T08:24:39.149Z,83
2024-02-06T08:34:39.484Z,84
2024-02-06T08:44:39.566Z,84
2024-02-06T08:54:39.763Z,83
2024-02-06T09:04:39.999Z,83
2024-02-06T09:14:41.338Z,83
2024-02-06T09:24:40.348Z,82
2024-02-06T09:34:40.766Z,82
2024-02-06T09:44:40.797Z,81
2024-02-06T09:54:40.930Z,81
2024-02-06T10:04:41.245Z,83
2024-02-06T10:44:41.926Z,86
2024-02-06T11:04:42.351Z,86
2024-02-06T11:44:43.127Z,86
2024-02-06T11:54:43.364Z,86
2024-02-06T12:14:43.712Z,86
2024-02-06T12:24:43.952Z,86
2024-02-06T12:34:44.205Z,87
2024-02-06T12:44:48.404Z,87
2024-02-06T12:54:44.503Z,87
2024-02-06T13:04:44.926Z,87
2024-02-06T13:14:44.999Z,86
2024-02-06T13:24:45.103Z,85
2024-02-06T13:34:45.388Z,85
2024-02-06T13:44:45.512Z,84
2024-02-06T13:54:45.738Z,84
2024-02-06T14:04:45.921Z,84
2024-02-06T14:14:46.102Z,83
2024-02-06T14:24:46.306Z,83
2024-02-06T14:34:46.645Z,82
2024-02-06T14:54:46.928Z,81
2024-02-06T15:04:47.256Z,80
2024-02-06T15:14:47.297Z,79
2024-02-06T15:24:47.581Z,78
2024-02-06T15:34:47.713Z,79
2024-02-06T15:44:47.889Z,80
2024-02-06T15:54:48.132Z,80
2024-02-06T16:04:48.338Z,82
2024-02-06T16:14:48.465Z,83
2024-02-06T16:24:48.698Z,83
2024-02-06T16:34:53.906Z,83
2024-02-06T16:44:49.162Z,83
2024-02-06T16:54:49.295Z,83
2024-02-06T17:04:49.599Z,83
2024-02-06T17:15:21.064Z,84
2024-02-06T17:24:49.865Z,85
2024-02-06T17:34:50.221Z,84
2024-02-06T17:44:50.264Z,84
2024-02-06T17:54:50.466Z,83
2024-02-06T18:04:52.558Z,83
2024-02-06T18:14:50.841Z,83
2024-02-06T18:24:51.100Z,82
2024-02-06T18:34:51.388Z,82
2024-02-06T18:44:51.527Z,81
2024-02-06T18:54:51.703Z,81
2024-02-06T19:04:51.874Z,81
2024-02-06T19:14:52.047Z,80
2024-02-06T19:24:52.293Z,80
2024-02-06T19:34:52.495Z,80
2024-02-06T19:44:52.638Z,80
2024-02-06T20:04:53.074Z,80
2024-02-06T20:14:53.232Z,80
2024-02-06T20:24:53.437Z,80
2024-02-06T20:34:53.815Z,80
2024-02-06T20:44:53.852Z,79
2024-02-06T20:54:54.034Z,80
2024-02-06T21:14:54.613Z,79
2024-02-06T21:24:54.657Z,79
2024-02-06T21:34:54.862Z,78
2024-02-06T21:44:55.010Z,78
2024-02-06T21:54:55.269Z,78
2024-02-06T22:04:55.577Z,78
2024-02-06T22:14:55.587Z,78
2024-02-06T22:24:55.798Z,78
2024-02-06T22:44:56.200Z,80
2024-02-06T23:04:56.601Z,81
2024-02-06T23:24:56.992Z,83
2024-02-06T23:44:57.380Z,85
2024-02-06T23:54:57.582Z,85
